createdAt,value
2022-12-14T00:01:11.164Z,22.10
2022-12-14T00:04:34.811Z,21.73
2022-12-14T00:07:58.809Z,21.27
2022-12-14T00:11:23.395Z,19.13
2022-12-14T00:14:50.050Z,20.37
2022-12-14T00:18:18.059Z,20.13
2022-12-14T00:21:49.088Z,18.57
2022-12-14T00:25:13.994Z,18.97
2022-12-14T00:28:38.204Z,16.83
2022-12-14T00:32:05.066Z,17.40
2022-12-14T00:35:31.108Z,19.93
2022-12-14T00:38:54.801Z,19.40
2022-12-14T00:42:18.745Z,17.80
2022-12-14T00:45:45.035Z,19.50
2022-12-14T00:49:09.127Z,18.83
2022-12-14T00:52:35.144Z,16.10
2022-12-14T00:55:58.946Z,21.07
2022-12-14T00:59:27.117Z,20.07
2022-12-14T01:02:53.795Z,18.43
2022-12-14T01:06:21.794Z,20.00
2022-12-14T01:09:47.243Z,17.33
2022-12-14T01:13:15.681Z,19.07
2022-12-14T01:16:39.879Z,19.03
2022-12-14T01:20:08.094Z,20.03
2022-12-14T01:23:31.759Z,19.57
2022-12-14T01:26:56.918Z,18.53
2022-12-14T01:30:21.111Z,17.30
2022-12-14T01:33:45.829Z,18.10
2022-12-14T01:37:10.110Z,18.50
2022-12-14T01:40:33.948Z,19.43
2022-12-14T01:44:02.300Z,16.90
2022-12-14T01:47:33.784Z,18.37
2022-12-14T01:50:58.074Z,18.00
2022-12-14T01:54:22.203Z,16.60
2022-12-14T01:57:50.234Z,16.47
2022-12-14T02:01:16.808Z,20.10
2022-12-14T02:04:44.677Z,17.07
2022-12-14T02:08:09.661Z,17.30
2022-12-14T02:11:46.319Z,18.37
2022-12-14T02:15:11.373Z,16.57
2022-12-14T02:18:39.847Z,16.27
2022-12-14T02:22:30.249Z,15.37
2022-12-14T02:26:26.189Z,17.47
2022-12-14T02:30:00.707Z,16.20
2022-12-14T02:33:37.179Z,17.33
2022-12-14T02:37:12.229Z,17.77
2022-12-14T02:40:40.830Z,22.47
2022-12-14T02:44:12.015Z,18.90
2022-12-14T02:47:41.502Z,17.60
2022-12-14T02:51:12.527Z,17.77
2022-12-14T02:54:43.968Z,15.90
2022-12-14T02:58:14.294Z,17.30
2022-12-14T03:01:40.903Z,18.90
2022-12-14T03:05:06.833Z,16.37
2022-12-14T03:08:34.959Z,16.70
2022-12-14T03:12:04.659Z,16.47
2022-12-14T03:15:30.758Z,16.60
2022-12-14T03:19:00.070Z,14.77
2022-12-14T03:22:28.621Z,16.73
2022-12-14T03:25:58.532Z,15.43
2022-12-14T03:29:25.306Z,15.07
2022-12-14T03:32:51.930Z,15.63
2022-12-14T03:36:21.249Z,14.43
2022-12-14T03:39:47.915Z,15.77
2022-12-14T03:43:17.226Z,15.40
2022-12-14T03:46:50.580Z,15.07
2022-12-14T03:50:20.159Z,17.40
2022-12-14T03:53:49.648Z,15.60
2022-12-14T03:57:24.027Z,16.30
2022-12-14T04:00:55.941Z,16.93
2022-12-14T04:04:23.949Z,16.70
2022-12-14T04:07:56.537Z,16.40
2022-12-14T04:11:43.200Z,15.57
2022-12-14T04:15:33.234Z,17.23
2022-12-14T04:19:03.303Z,15.97
2022-12-14T04:22:32.156Z,16.00
2022-12-14T04:26:05.028Z,17.57
2022-12-14T04:29:52.236Z,16.17
2022-12-14T04:33:36.215Z,16.77
2022-12-14T04:37:05.451Z,15.73
2022-12-14T04:40:34.561Z,16.77
2022-12-14T04:44:02.090Z,15.70
2022-12-14T04:47:32.587Z,16.33
2022-12-14T04:51:04.180Z,16.10
2022-12-14T04:54:34.818Z,15.70
2022-12-14T04:58:03.757Z,18.47
2022-12-14T05:01:39.862Z,16.10
2022-12-14T05:05:11.897Z,17.70
2022-12-14T05:08:56.454Z,15.87
2022-12-14T05:12:24.933Z,16.80
2022-12-14T05:15:52.658Z,16.20
2022-12-14T05:19:17.524Z,15.70
2022-12-14T05:22:42.000Z,16.37
2022-12-14T05:26:07.743Z,17.00
2022-12-14T05:29:32.352Z,15.97
2022-12-14T05:32:56.806Z,14.50
2022-12-14T05:36:21.106Z,19.53
2022-12-14T05:39:47.656Z,16.17
2022-12-14T05:43:14.669Z,15.50
2022-12-14T05:46:38.682Z,16.40
2022-12-14T05:50:02.326Z,14.90
2022-12-14T05:53:26.380Z,15.90
2022-12-14T05:56:50.400Z,14.60
2022-12-14T06:00:19.123Z,16.03
2022-12-14T06:03:42.950Z,14.93
2022-12-14T06:07:06.779Z,16.57
2022-12-14T06:10:30.534Z,14.37
2022-12-14T06:13:54.313Z,15.80
2022-12-14T06:17:19.312Z,14.10
2022-12-14T06:20:42.961Z,15.03
2022-12-14T06:24:07.733Z,15.83
2022-12-14T06:27:31.629Z,16.33
2022-12-14T06:30:55.300Z,14.37
2022-12-14T06:34:24.971Z,14.07
2022-12-14T06:37:52.139Z,12.97
2022-12-14T06:41:17.192Z,15.10
2022-12-14T06:44:40.860Z,13.17
2022-12-14T06:48:04.828Z,14.00
2022-12-14T06:51:29.864Z,13.80
2022-12-14T06:54:53.693Z,12.57
2022-12-14T06:58:17.349Z,13.33
2022-12-14T07:01:42.197Z,12.03
2022-12-14T07:05:06.646Z,10.93
2022-12-14T07:08:32.913Z,13.23
2022-12-14T07:12:00.446Z,12.10
2022-12-14T07:15:24.188Z,11.20
2022-12-14T07:18:48.402Z,12.80
2022-12-14T07:22:12.175Z,13.00
2022-12-14T07:25:37.424Z,11.00
2022-12-14T07:29:01.571Z,13.47
2022-12-14T07:32:25.379Z,13.17
2022-12-14T07:35:49.309Z,11.10
2022-12-14T07:39:14.854Z,12.40
2022-12-14T07:42:39.891Z,12.10
2022-12-14T07:46:08.924Z,11.03
2022-12-14T07:49:32.923Z,13.60
2022-12-14T07:52:56.839Z,10.20
2022-12-14T07:56:22.350Z,12.07
2022-12-14T07:59:47.462Z,11.07
2022-12-14T08:03:11.574Z,9.50
2022-12-14T08:06:35.749Z,10.80
2022-12-14T08:09:59.504Z,11.57
2022-12-14T08:13:23.150Z,8.93
2022-12-14T08:16:49.833Z,13.57
2022-12-14T08:20:13.764Z,11.73
2022-12-14T08:23:38.051Z,11.30
2022-12-14T08:27:01.808Z,11.13
2022-12-14T08:30:25.487Z,12.27
2022-12-14T08:33:51.075Z,9.03
2022-12-14T08:37:14.717Z,13.17
2022-12-14T08:40:39.347Z,10.20
2022-12-14T08:44:04.817Z,10.40
2022-12-14T08:47:28.730Z,11.83
2022-12-14T08:50:53.949Z,12.97
2022-12-14T08:54:18.673Z,11.63
2022-12-14T08:57:42.861Z,10.60
2022-12-14T09:01:08.714Z,11.77
2022-12-14T09:04:32.409Z,12.30
2022-12-14T09:07:57.654Z,12.67
2022-12-14T09:11:21.941Z,11.40
2022-12-14T09:14:46.741Z,12.83
2022-12-14T09:18:13.057Z,12.47
2022-12-14T09:21:37.115Z,11.77
2022-12-14T09:25:02.756Z,13.70
2022-12-14T09:28:26.704Z,11.53
2022-12-14T09:31:50.446Z,10.97
2022-12-14T09:35:16.225Z,12.50
2022-12-14T09:38:48.703Z,12.70
2022-12-14T09:42:31.244Z,13.57
2022-12-14T09:45:58.263Z,12.63
2022-12-14T09:49:28.254Z,13.83
2022-12-14T09:52:54.461Z,12.03
2022-12-14T09:56:21.003Z,12.07
2022-12-14T09:59:46.163Z,13.17
2022-12-14T10:03:39.642Z,10.70
2022-12-14T10:07:10.829Z,11.50
2022-12-14T10:10:44.322Z,11.87
2022-12-14T10:14:19.837Z,10.70
2022-12-14T10:18:11.245Z,10.53
2022-12-14T10:21:47.776Z,12.23
2022-12-14T10:25:15.225Z,10.17
2022-12-14T10:28:45.643Z,11.30
2022-12-14T10:32:20.244Z,13.00
2022-12-14T10:35:50.885Z,11.10
2022-12-14T10:39:23.739Z,12.40
2022-12-14T10:42:53.466Z,11.50
2022-12-14T10:46:25.555Z,10.80
2022-12-14T10:49:56.388Z,10.97
2022-12-14T10:53:28.494Z,11.10
2022-12-14T10:56:52.307Z,11.23
2022-12-14T11:00:26.129Z,10.63
2022-12-14T11:03:51.713Z,12.27
2022-12-14T11:07:18.330Z,10.80
2022-12-14T11:10:43.436Z,9.67
2022-12-14T11:14:09.669Z,10.73
2022-12-14T11:17:36.925Z,11.10
2022-12-14T11:21:02.928Z,10.20
2022-12-14T11:24:29.220Z,11.70
2022-12-14T11:27:55.001Z,11.93
2022-12-14T11:31:24.563Z,11.43
2022-12-14T11:34:57.093Z,10.30
2022-12-14T11:38:21.179Z,11.27
2022-12-14T11:41:47.503Z,11.70
2022-12-14T11:45:30.712Z,8.63
2022-12-14T11:48:54.369Z,12.33
2022-12-14T11:52:20.894Z,10.70
2022-12-14T11:55:48.769Z,11.93
2022-12-14T11:59:18.392Z,10.70
2022-12-14T12:02:50.836Z,11.77
2022-12-14T12:06:19.731Z,10.07
2022-12-14T12:09:43.765Z,12.23
2022-12-14T12:13:17.314Z,12.00
2022-12-14T12:16:44.494Z,10.50
2022-12-14T12:20:23.106Z,11.40
2022-12-14T12:23:54.224Z,10.80
2022-12-14T12:27:19.776Z,10.97
2022-12-14T12:30:49.330Z,11.93
2022-12-14T12:34:17.887Z,11.80
2022-12-14T12:37:47.208Z,11.77
2022-12-14T12:41:21.693Z,12.60
2022-12-14T12:44:51.268Z,11.03
2022-12-14T12:48:22.973Z,11.67
2022-12-14T12:51:50.760Z,12.20
2022-12-14T12:55:19.993Z,13.03
2022-12-14T12:58:52.107Z,12.17
2022-12-14T13:02:25.902Z,12.53
2022-12-14T13:05:51.843Z,11.97
2022-12-14T13:09:20.287Z,10.40
2022-12-14T13:12:49.396Z,12.10
2022-12-14T13:16:21.462Z,10.93
2022-12-14T13:19:54.398Z,10.27
2022-12-14T13:23:45.945Z,10.90
2022-12-14T13:27:26.870Z,11.20
2022-12-14T13:31:03.244Z,11.37
2022-12-14T13:34:34.937Z,11.97
2022-12-14T13:38:29.166Z,12.47
2022-12-14T13:42:02.852Z,10.93
2022-12-14T13:45:33.242Z,10.07
2022-12-14T13:49:03.854Z,11.73
2022-12-14T13:52:39.980Z,10.83
2022-12-14T13:56:04.185Z,11.77
2022-12-14T13:59:32.916Z,11.50
2022-12-14T14:02:57.246Z,12.40
2022-12-14T14:06:35.208Z,11.60
2022-12-14T14:10:01.757Z,11.57
2022-12-14T14:14:05.176Z,12.80
2022-12-14T14:17:36.908Z,11.27
2022-12-14T14:21:31.009Z,12.50
2022-12-14T14:25:01.202Z,11.87
2022-12-14T14:28:30.832Z,12.40
2022-12-14T14:31:57.974Z,12.60
2022-12-14T14:35:25.854Z,12.47
2022-12-14T14:38:51.751Z,12.63
2022-12-14T14:42:21.592Z,12.10
2022-12-14T14:45:51.284Z,12.70
2022-12-14T14:49:23.587Z,14.23
2022-12-14T14:52:59.811Z,14.20
2022-12-14T14:56:40.248Z,13.70
2022-12-14T15:00:07.089Z,13.23
2022-12-14T15:03:45.005Z,13.23
2022-12-14T15:07:13.912Z,12.60
2022-12-14T15:10:42.816Z,12.27
2022-12-14T15:14:32.189Z,11.27
2022-12-14T15:17:55.879Z,12.17
2022-12-14T15:21:20.362Z,13.07
2022-12-14T15:24:45.817Z,13.03
2022-12-14T15:28:14.280Z,13.40
2022-12-14T15:31:41.872Z,10.93
2022-12-14T15:35:08.867Z,12.47
2022-12-14T15:38:35.077Z,11.00
2022-12-14T15:42:06.927Z,11.63
2022-12-14T15:45:32.484Z,11.60
2022-12-14T15:48:59.016Z,10.57
2022-12-14T15:52:31.275Z,13.60
2022-12-14T15:56:01.868Z,12.93
2022-12-14T15:59:32.414Z,12.40
2022-12-14T16:02:56.356Z,14.90
2022-12-14T16:06:22.807Z,13.93
2022-12-14T16:09:50.606Z,13.97
2022-12-14T16:13:23.929Z,15.30
2022-12-14T16:16:50.672Z,16.37
2022-12-14T16:20:20.899Z,14.80
2022-12-14T16:23:46.389Z,15.13
2022-12-14T16:27:19.301Z,14.60
2022-12-14T16:30:54.631Z,14.80
2022-12-14T16:34:20.821Z,15.77
2022-12-14T16:37:45.072Z,14.60
2022-12-14T16:41:10.858Z,13.93
2022-12-14T16:44:39.427Z,12.97
2022-12-14T16:48:08.106Z,14.43
2022-12-14T16:52:05.695Z,13.57
2022-12-14T16:55:26.162Z,15.27
2022-12-14T16:58:58.129Z,15.80
2022-12-14T17:02:29.222Z,21.07
2022-12-14T17:05:55.826Z,19.10
2022-12-14T17:09:22.446Z,17.63
2022-12-14T17:12:46.128Z,13.90
2022-12-14T17:16:20.773Z,14.90
2022-12-14T17:19:44.851Z,14.20
2022-12-14T17:23:14.197Z,12.90
2022-12-14T17:26:37.971Z,14.70
2022-12-14T17:30:01.699Z,14.23
2022-12-14T17:33:28.579Z,12.90
2022-12-14T17:36:52.490Z,13.83
2022-12-14T17:40:16.747Z,16.07
2022-12-14T17:43:50.032Z,13.53
2022-12-14T17:47:17.382Z,12.63
2022-12-14T17:50:44.028Z,13.93
2022-12-14T17:54:07.830Z,13.70
2022-12-14T17:57:31.674Z,14.17
2022-12-14T18:01:03.195Z,12.50
2022-12-14T18:04:26.899Z,14.07
2022-12-14T18:07:51.830Z,13.57
2022-12-14T18:11:18.679Z,15.80
2022-12-14T18:14:42.709Z,14.57
2022-12-14T18:18:08.257Z,14.73
2022-12-14T18:21:31.950Z,12.40
2022-12-14T18:24:56.928Z,14.50
2022-12-14T18:28:21.659Z,14.63
2022-12-14T18:31:45.405Z,14.80
2022-12-14T18:35:18.237Z,14.77
2022-12-14T18:38:42.193Z,14.93
2022-12-14T18:42:07.235Z,14.93
2022-12-14T18:45:33.697Z,15.07
2022-12-14T18:48:57.269Z,14.60
2022-12-14T18:52:20.982Z,16.47
2022-12-14T18:55:45.433Z,16.83
2022-12-14T18:59:12.689Z,20.17
2022-12-14T19:02:36.538Z,20.53
2022-12-14T19:06:34.776Z,32.47
2022-12-14T19:09:49.205Z,15.83
2022-12-14T19:13:21.637Z,17.70
2022-12-14T19:16:50.174Z,18.80
2022-12-14T19:20:15.974Z,17.00
2022-12-14T19:23:39.652Z,16.87
2022-12-14T19:27:04.026Z,16.80
2022-12-14T19:30:28.082Z,17.70
2022-12-14T19:33:53.648Z,18.17
2022-12-14T19:37:17.427Z,19.27
2022-12-14T19:40:41.117Z,16.63
2022-12-14T19:44:05.028Z,17.97
2022-12-14T19:47:28.617Z,17.73
2022-12-14T19:50:53.837Z,18.20
2022-12-14T19:54:17.547Z,18.60
2022-12-14T19:57:42.225Z,19.33
2022-12-14T20:01:09.281Z,18.57
2022-12-14T20:04:36.928Z,20.33
2022-12-14T20:08:02.131Z,16.73
2022-12-14T20:11:25.773Z,16.70
2022-12-14T20:14:49.593Z,16.40
2022-12-14T20:18:13.342Z,19.10
2022-12-14T20:21:36.957Z,19.27
2022-12-14T20:25:01.958Z,18.30
2022-12-14T20:28:25.587Z,17.40
2022-12-14T20:31:49.316Z,19.20
2022-12-14T20:35:16.740Z,16.47
2022-12-14T20:38:40.472Z,16.73
2022-12-14T20:42:05.475Z,14.47
2022-12-14T20:45:29.139Z,15.40
2022-12-14T20:48:52.797Z,16.07
2022-12-14T20:52:16.410Z,16.73
2022-12-14T20:55:40.000Z,16.47
2022-12-14T20:59:06.054Z,16.60
2022-12-14T21:02:30.318Z,19.97
2022-12-14T21:05:54.028Z,15.50
2022-12-14T21:09:17.713Z,16.53
2022-12-14T21:12:41.359Z,20.53
2022-12-14T21:16:10.766Z,13.90
2022-12-14T21:19:35.878Z,14.27
2022-12-14T21:22:59.513Z,16.83
2022-12-14T21:26:26.270Z,15.70
2022-12-14T21:29:50.851Z,17.20
2022-12-14T21:33:15.801Z,17.23
2022-12-14T21:36:39.464Z,16.33
2022-12-14T21:40:03.739Z,15.27
2022-12-14T21:43:27.875Z,14.90
2022-12-14T21:46:52.152Z,15.27
2022-12-14T21:50:17.577Z,16.70
2022-12-14T21:53:58.421Z,14.13
2022-12-14T21:57:41.811Z,15.20
2022-12-14T22:01:08.575Z,16.13
2022-12-14T22:04:39.342Z,15.97
2022-12-14T22:08:06.619Z,14.20
2022-12-14T22:11:30.474Z,14.47
2022-12-14T22:14:55.568Z,14.50
2022-12-14T22:18:19.294Z,15.00
2022-12-14T22:21:43.049Z,13.50
2022-12-14T22:25:09.526Z,13.50
2022-12-14T22:28:33.206Z,14.67
2022-12-14T22:31:57.512Z,13.97
2022-12-14T22:35:21.137Z,14.87
2022-12-14T22:38:45.706Z,13.63
2022-12-14T22:42:14.096Z,12.87
2022-12-14T22:45:37.876Z,14.10
2022-12-14T22:49:02.324Z,14.03
2022-12-14T22:52:26.169Z,11.60
2022-12-14T22:55:50.301Z,12.80
2022-12-14T22:59:18.263Z,12.77
2022-12-14T23:02:47.622Z,15.57
2022-12-14T23:06:16.462Z,14.70
2022-12-14T23:09:57.602Z,11.33
2022-12-14T23:13:39.821Z,13.93
2022-12-14T23:17:24.791Z,14.43
2022-12-14T23:21:07.394Z,14.53
2022-12-14T23:24:49.574Z,13.73
2022-12-14T23:28:30.496Z,15.70
2022-12-14T23:32:12.413Z,12.43
2022-12-14T23:35:56.697Z,15.33
2022-12-14T23:39:39.430Z,14.77
2022-12-14T23:43:26.685Z,13.67
2022-12-14T23:47:08.431Z,15.40
2022-12-14T23:50:51.039Z,14.63
2022-12-14T23:54:37.603Z,15.37
2022-12-14T23:58:18.490Z,12.63
